createdAt,value
2019-05-11T11:30:33.588Z,72.99
2019-05-11T11:31:33.569Z,71.64
2019-05-11T11:32:33.561Z,71.26
2019-05-11T11:33:33.550Z,68.10
2019-05-11T11:34:33.543Z,68.47
2019-05-11T11:35:33.536Z,68.04
2019-05-11T11:36:33.521Z,68.21
2019-05-11T11:37:33.526Z,66.25
2019-05-11T11:38:33.491Z,65.85
2019-05-11T11:39:33.480Z,65.95
2019-05-11T11:40:33.478Z,64.95
2019-05-11T11:41:33.459Z,64.67
2019-05-11T11:42:33.529Z,64.07
2019-05-11T11:43:33.438Z,63.67
2019-05-11T11:44:33.427Z,62.45
2019-05-11T11:45:33.425Z,63.59
2019-05-11T11:46:47.518Z,63.29
2019-05-11T11:47:34.405Z,64.50
2019-05-11T11:48:33.381Z,62.51
2019-05-11T11:49:33.371Z,63.62
2019-05-11T11:50:33.371Z,65.64
2019-05-11T11:51:33.349Z,64.23
2019-05-11T11:52:33.337Z,64.53
2019-05-11T11:53:33.326Z,64.36
2019-05-11T11:54:33.316Z,64.64
2019-05-11T11:55:33.319Z,64.53
2019-05-11T11:56:33.295Z,65.04
2019-05-11T11:57:33.281Z,64.26
2019-05-11T11:58:33.270Z,63.96
2019-05-11T11:59:33.261Z,64.16
2019-05-11T12:00:33.250Z,64.67
2019-05-11T12:01:33.247Z,64.06
2019-05-11T12:02:33.226Z,64.13
2019-05-11T12:03:33.217Z,62.31
2019-05-11T12:04:33.208Z,63.52
2019-05-11T12:05:33.192Z,63.70
2019-05-11T12:06:33.191Z,64.20
2019-05-11T12:07:33.173Z,63.39
2019-05-11T12:08:33.163Z,63.09
2019-05-11T12:09:33.149Z,62.59
2019-05-11T12:10:33.138Z,63.09
2019-05-11T12:11:33.136Z,62.28
2019-05-11T12:12:33.114Z,61.57
2019-05-11T12:13:33.103Z,62.41
2019-05-11T12:14:33.094Z,61.57
2019-05-11T12:15:33.096Z,60.60
2019-05-11T12:16:33.080Z,61.10
2019-05-11T12:17:33.060Z,61.94
2019-05-11T12:18:33.048Z,61.80
2019-05-11T12:19:33.041Z,62.24
2019-05-11T12:20:33.031Z,62.51
2019-05-11T12:21:33.023Z,63.52
2019-05-11T12:22:33.015Z,63.19
2019-05-11T12:23:33.002Z,62.28
2019-05-11T12:24:33.002Z,61.17
2019-05-11T12:25:32.970Z,61.55
2019-05-11T12:26:32.968Z,61.35
2019-05-11T12:27:32.949Z,60.03
2019-05-11T12:28:32.936Z,59.40
2019-05-11T12:29:32.927Z,60.31
2019-05-11T12:30:32.915Z,59.40
2019-05-11T12:31:32.913Z,60.51
2019-05-11T12:32:32.892Z,59.70
2019-05-11T12:33:32.882Z,57.58
2019-05-11T12:34:32.874Z,58.22
2019-05-11T12:35:32.864Z,59.30
2019-05-11T12:36:32.860Z,60.68
2019-05-11T12:37:32.837Z,60.58
2019-05-11T12:38:32.826Z,59.24
2019-05-11T12:39:32.819Z,58.54
2019-05-11T12:40:32.810Z,57.53
2019-05-11T12:41:32.805Z,57.63
2019-05-11T12:42:32.783Z,58.23
2019-05-11T12:43:32.800Z,57.53
2019-05-11T12:44:32.762Z,59.34
2019-05-11T12:45:32.754Z,57.93
2019-05-11T12:46:32.748Z,57.63
2019-05-11T12:47:32.732Z,57.83
2019-05-11T12:48:32.719Z,58.26
2019-05-11T12:49:32.708Z,58.06
2019-05-11T12:50:32.695Z,56.04
2019-05-11T12:51:32.695Z,57.35
2019-05-11T12:52:32.676Z,57.53
2019-05-11T12:53:32.664Z,57.86
2019-05-11T12:54:34.100Z,58.06
2019-05-11T12:55:32.643Z,58.06
2019-05-11T12:56:32.639Z,57.28
2019-05-11T12:57:32.618Z,57.98
2019-05-11T12:58:32.607Z,55.87
2019-05-11T12:59:32.596Z,57.58
2019-05-11T13:00:32.587Z,56.55
2019-05-11T13:01:32.587Z,56.15
2019-05-11T13:02:32.573Z,57.15
2019-05-11T13:03:32.555Z,57.25
2019-05-11T13:04:32.543Z,55.84
2019-05-11T13:05:32.530Z,55.94
2019-05-11T13:06:32.522Z,55.54
2019-05-11T13:07:32.516Z,55.16
2019-05-11T13:08:32.498Z,55.97
2019-05-11T13:09:32.485Z,56.81
2019-05-11T13:10:32.477Z,56.20
2019-05-11T13:11:32.463Z,56.90
2019-05-11T13:12:32.465Z,56.30
2019-05-11T13:13:32.442Z,57.94
2019-05-11T13:14:32.431Z,58.12
2019-05-11T13:15:32.419Z,56.90
2019-05-11T13:16:32.411Z,55.97
2019-05-11T13:17:36.946Z,57.45
2019-05-11T13:18:33.387Z,56.02
2019-05-11T13:19:32.375Z,54.68
2019-05-11T13:20:32.365Z,54.73
2019-05-11T13:21:32.354Z,53.90
2019-05-11T13:22:32.352Z,53.37
2019-05-11T13:23:32.331Z,52.44
2019-05-11T13:24:32.322Z,52.84
2019-05-11T13:25:32.310Z,52.94
2019-05-11T13:26:32.302Z,52.74
2019-05-11T13:27:32.296Z,51.24
2019-05-11T13:28:32.276Z,52.14
2019-05-11T13:29:32.266Z,51.66
2019-05-11T13:30:32.254Z,51.86
2019-05-11T13:31:32.244Z,51.99
2019-05-11T13:32:32.244Z,52.49
2019-05-11T13:33:32.221Z,54.15
2019-05-11T13:34:32.212Z,54.15
2019-05-11T13:35:32.199Z,55.19
2019-05-11T13:36:32.194Z,54.50
2019-05-11T13:37:32.191Z,54.33
2019-05-11T13:38:32.166Z,54.94
2019-05-11T13:39:32.162Z,55.26
2019-05-11T13:40:32.146Z,56.20
2019-05-11T13:41:32.134Z,55.52
2019-05-11T13:42:32.135Z,55.99
2019-05-11T13:43:32.114Z,57.18
2019-05-11T13:44:32.099Z,54.91
2019-05-11T13:45:32.092Z,55.06
2019-05-11T13:46:32.079Z,54.23
2019-05-11T13:47:32.078Z,52.26
2019-05-11T13:48:32.055Z,51.97
2019-05-11T13:49:32.696Z,52.44
2019-05-11T13:50:32.035Z,51.46
2019-05-11T13:51:32.022Z,51.36
2019-05-11T13:52:32.023Z,52.59
2019-05-11T13:53:32.003Z,53.20
2019-05-11T13:54:31.990Z,53.32
2019-05-11T13:55:31.979Z,53.72
2019-05-11T13:56:32.423Z,52.94
2019-05-11T13:57:31.963Z,53.34
2019-05-11T13:58:31.945Z,54.08
2019-05-11T13:59:31.933Z,53.90
2019-05-11T14:00:31.925Z,55.21
2019-05-11T14:01:31.912Z,54.53
2019-05-11T14:02:31.912Z,55.64
2019-05-11T14:03:31.888Z,55.36
2019-05-11T14:04:31.880Z,55.06
2019-05-11T14:05:31.868Z,55.79
2019-05-11T14:06:31.866Z,56.30
2019-05-11T14:07:31.883Z,56.02
2019-05-11T14:08:31.835Z,55.52
2019-05-11T14:09:31.826Z,56.12
2019-05-11T14:10:31.811Z,55.72
2019-05-11T14:11:31.801Z,55.32
2019-05-11T14:12:31.805Z,55.85
2019-05-11T14:13:31.779Z,55.65
2019-05-11T14:14:31.770Z,55.34
2019-05-11T14:15:31.757Z,56.35
2019-05-11T14:16:31.748Z,56.85
2019-05-11T14:17:32.039Z,56.05
2019-05-11T14:18:31.723Z,56.25
2019-05-11T14:19:31.721Z,55.85
2019-05-11T14:20:31.701Z,55.94
2019-05-11T14:21:31.692Z,55.94
2019-05-11T14:22:31.690Z,55.82
2019-05-11T14:23:31.673Z,55.97
2019-05-11T14:24:31.663Z,53.30
2019-05-11T14:25:31.648Z,54.28
2019-05-11T14:26:31.638Z,52.51
2019-05-11T14:27:31.638Z,52.82
2019-05-11T14:28:31.621Z,51.68
2019-05-11T14:29:31.609Z,51.49
2019-05-11T14:30:31.593Z,50.86
2019-05-11T14:31:31.581Z,49.83
2019-05-11T14:32:31.583Z,49.83
2019-05-11T14:33:31.560Z,50.18
2019-05-11T14:34:31.550Z,48.16
2019-05-11T14:35:31.538Z,48.43
2019-05-11T14:36:31.525Z,47.99
2019-05-11T14:37:31.531Z,46.61
2019-05-11T14:38:31.510Z,46.56
2019-05-11T14:39:31.496Z,43.84
2019-05-11T14:40:31.486Z,43.93
2019-05-11T14:41:31.473Z,44.29
2019-05-11T14:42:31.459Z,42.69
2019-05-11T14:43:31.460Z,42.90
2019-05-11T14:44:31.441Z,42.79
2019-05-11T14:45:31.434Z,43.70
2019-05-11T14:46:31.420Z,42.68
2019-05-11T14:47:31.406Z,42.05
2019-05-11T14:48:31.406Z,43.25
2019-05-11T14:49:31.384Z,41.85
2019-05-11T14:50:31.375Z,43.67
2019-05-11T14:51:31.366Z,42.49
2019-05-11T14:52:31.353Z,43.70
2019-05-11T14:53:31.351Z,44.29
2019-05-11T14:54:31.331Z,43.74
2019-05-11T14:55:31.319Z,44.13
2019-05-11T14:56:31.310Z,43.76
2019-05-11T14:57:31.298Z,44.26
2019-05-11T14:58:31.296Z,44.26
2019-05-11T14:59:31.275Z,44.35
2019-05-11T15:00:31.263Z,44.13
2019-05-11T15:01:31.253Z,43.54
2019-05-11T15:02:31.243Z,42.52
2019-05-11T15:03:31.245Z,41.39
2019-05-11T15:04:31.220Z,42.68
2019-05-11T15:05:31.217Z,42.65
2019-05-11T15:06:31.202Z,42.55
2019-05-11T15:07:31.192Z,43.18
2019-05-11T15:08:31.186Z,42.05
2019-05-11T15:09:31.164Z,41.83
2019-05-11T15:10:31.152Z,41.24
2019-05-11T15:11:31.141Z,41.46
2019-05-11T15:12:31.137Z,41.55
2019-05-11T15:13:31.127Z,40.95
2019-05-11T15:14:31.107Z,41.85
2019-05-11T15:15:31.107Z,43.07
2019-05-11T15:16:31.094Z,42.83
2019-05-11T15:17:31.074Z,43.08
2019-05-11T15:18:38.651Z,43.90
2019-05-11T15:19:32.069Z,45.54
2019-05-11T15:20:31.041Z,44.89
2019-05-11T15:21:31.035Z,46.84
2019-05-11T15:22:31.023Z,46.86
2019-05-11T15:23:31.017Z,48.09
2019-05-11T15:24:31.004Z,46.93
2019-05-11T15:25:30.987Z,47.83
2019-05-11T15:26:30.978Z,48.69
2019-05-11T15:27:30.978Z,49.49
2019-05-11T15:28:30.961Z,50.32
2019-05-11T15:29:30.945Z,50.32
2019-05-11T15:30:30.931Z,50.55
2019-05-11T15:31:30.930Z,50.15
2019-05-11T15:32:30.916Z,50.57
2019-05-11T15:33:30.910Z,51.28
2019-05-11T15:34:30.895Z,51.78
2019-05-11T15:35:30.876Z,51.81
2019-05-11T15:36:30.865Z,51.50
2019-05-11T15:37:30.855Z,51.91
2019-05-11T15:38:30.851Z,52.11
2019-05-11T15:39:30.836Z,53.30
2019-05-11T15:40:30.824Z,52.31
2019-05-11T15:41:30.819Z,52.82
2019-05-11T15:42:30.800Z,51.91
2019-05-11T15:43:30.801Z,51.91
2019-05-11T15:44:30.779Z,50.62
2019-05-11T15:45:30.766Z,50.72
2019-05-11T15:46:30.759Z,51.45
2019-05-11T15:47:30.742Z,51.96
2019-05-11T15:48:30.745Z,51.15
2019-05-11T15:49:30.721Z,51.76
2019-05-11T15:50:30.708Z,52.06
2019-05-11T15:51:30.697Z,51.55
2019-05-11T15:52:30.691Z,52.26
2019-05-11T15:53:30.694Z,51.57
2019-05-11T15:54:30.667Z,52.36
2019-05-11T15:55:30.654Z,51.98
2019-05-11T15:56:30.645Z,52.39
2019-05-11T15:57:30.634Z,53.58
2019-05-11T15:58:30.623Z,52.26
2019-05-11T15:59:30.790Z,52.39
2019-05-11T16:00:30.603Z,53.60
2019-05-11T16:01:30.589Z,52.59
2019-05-11T16:02:30.579Z,52.99
2019-05-11T16:03:30.568Z,54.31
2019-05-11T16:04:30.564Z,53.42
2019-05-11T16:05:30.548Z,53.22
2019-05-11T16:06:30.536Z,53.42
2019-05-11T16:07:30.527Z,52.94
2019-05-11T16:08:30.511Z,52.84
2019-05-11T16:09:30.512Z,53.58
2019-05-11T16:10:30.488Z,54.56
2019-05-11T16:11:30.476Z,53.85
2019-05-11T16:12:30.469Z,53.98
2019-05-11T16:13:30.455Z,55.27
2019-05-11T16:14:30.453Z,55.07
2019-05-11T16:15:30.432Z,55.50
2019-05-11T16:16:30.423Z,55.30
2019-05-11T16:17:30.409Z,55.40
2019-05-11T16:18:30.398Z,54.89
2019-05-11T16:19:30.397Z,54.69
2019-05-11T16:20:30.376Z,54.69
2019-05-11T16:21:30.371Z,54.79
2019-05-11T16:22:30.354Z,54.79
2019-05-11T16:23:30.342Z,54.69
2019-05-11T16:24:30.340Z,55.19
2019-05-11T16:25:30.320Z,55.40
2019-05-11T16:26:30.309Z,54.28
2019-05-11T16:27:30.306Z,54.59
2019-05-11T16:28:30.915Z,54.79
2019-05-11T16:29:30.284Z,55.32
2019-05-11T16:30:30.269Z,56.10
2019-05-11T16:31:30.256Z,56.13
2019-05-11T16:32:30.242Z,56.13
2019-05-11T16:33:30.231Z,56.54
2019-05-11T16:34:30.230Z,56.21
2019-05-11T16:35:30.210Z,56.21
2019-05-11T16:36:30.197Z,56.41
2019-05-11T16:37:30.185Z,56.41
2019-05-11T16:38:30.177Z,56.41
2019-05-11T16:39:30.171Z,56.41
2019-05-11T16:40:30.153Z,56.31
2019-05-11T16:41:30.141Z,56.10
2019-05-11T16:42:30.661Z,57.20
2019-05-11T16:43:30.130Z,57.09
2019-05-11T16:44:30.116Z,56.38
2019-05-11T16:45:30.107Z,57.20
2019-05-11T16:46:30.090Z,56.28
2019-05-11T16:47:30.076Z,56.48
2019-05-11T16:48:30.065Z,56.28
2019-05-11T16:49:32.467Z,56.79
2019-05-11T16:50:30.056Z,56.46
2019-05-11T16:51:30.031Z,56.28
2019-05-11T16:52:30.018Z,56.26
2019-05-11T16:53:30.010Z,55.98
2019-05-11T16:54:30.001Z,55.44
2019-05-11T16:55:29.993Z,54.97
2019-05-11T16:56:29.973Z,56.36
2019-05-11T16:57:29.961Z,56.15
2019-05-11T16:58:29.952Z,56.18
2019-05-11T16:59:29.941Z,55.85
2019-05-11T17:00:29.937Z,56.05
2019-05-11T17:01:29.919Z,56.05
2019-05-11T17:02:30.424Z,56.18
2019-05-11T17:03:29.894Z,56.38
2019-05-11T17:04:31.313Z,56.28
2019-05-11T17:05:33.538Z,55.57
2019-05-11T17:06:31.857Z,56.18
2019-05-11T17:07:30.096Z,56.08
2019-05-11T17:08:29.838Z,56.38
2019-05-11T17:09:29.831Z,56.18
2019-05-11T17:10:29.824Z,55.77
2019-05-11T17:11:29.805Z,56.18
2019-05-11T17:12:29.794Z,56.08
2019-05-11T17:13:29.784Z,55.77
2019-05-11T17:14:29.770Z,55.40
2019-05-11T17:15:29.774Z,55.70
2019-05-11T17:16:29.751Z,55.50
2019-05-11T17:17:29.755Z,55.80
2019-05-11T17:18:29.729Z,55.50
2019-05-11T17:19:42.880Z,56.13
2019-05-11T17:20:30.724Z,56.41
2019-05-11T17:21:30.047Z,56.23
2019-05-11T17:22:29.681Z,56.44
2019-05-11T17:23:31.093Z,56.54
2019-05-11T17:24:29.659Z,56.54
2019-05-11T17:25:29.659Z,56.34
2019-05-11T17:26:29.639Z,56.97
2019-05-11T17:27:29.626Z,56.87
2019-05-11T17:28:29.616Z,57.37
2019-05-11T17:29:29.605Z,57.48
2019-05-11T17:30:29.601Z,57.88
2019-05-11T17:31:29.581Z,58.09
2019-05-11T17:32:29.572Z,57.88
2019-05-11T17:33:29.561Z,57.91
2019-05-11T17:34:29.547Z,58.49
2019-05-11T17:35:29.546Z,58.42
2019-05-11T17:36:29.525Z,58.22
2019-05-11T17:37:29.513Z,58.52
2019-05-11T17:38:29.506Z,58.22
2019-05-11T17:39:29.493Z,58.62
2019-05-11T17:40:29.491Z,58.62
2019-05-11T17:41:29.469Z,58.11
2019-05-11T17:42:29.457Z,58.72
2019-05-11T17:43:29.448Z,58.72
2019-05-11T17:44:29.438Z,59.03
2019-05-11T17:45:29.432Z,58.72
2019-05-11T17:46:29.414Z,58.59
2019-05-11T17:47:29.401Z,58.59
2019-05-11T17:48:29.393Z,59.70
2019-05-11T17:49:29.382Z,58.80
2019-05-11T17:50:29.381Z,58.69
2019-05-11T17:51:29.361Z,59.00
2019-05-11T17:52:29.345Z,59.00
2019-05-11T17:53:29.336Z,58.90
2019-05-11T17:54:29.324Z,58.69
2019-05-11T17:55:29.314Z,59.00
2019-05-11T17:56:29.309Z,58.29
2019-05-11T17:57:29.290Z,58.39
2019-05-11T17:58:29.429Z,58.49
2019-05-11T17:59:29.268Z,58.16
2019-05-11T18:00:29.259Z,58.36
2019-05-11T18:01:29.260Z,58.47
2019-05-11T18:02:29.238Z,58.06
2019-05-11T18:03:29.226Z,57.88
2019-05-11T18:04:29.212Z,57.78
2019-05-11T18:05:29.202Z,57.86
2019-05-11T18:06:29.203Z,58.09
2019-05-11T18:07:30.924Z,57.88
2019-05-11T18:08:30.956Z,58.09
2019-05-11T18:09:29.155Z,58.29
2019-05-11T18:10:29.146Z,58.18
2019-05-11T18:11:29.896Z,58.29
2019-05-11T18:12:29.125Z,58.18
2019-05-11T18:13:29.113Z,57.98
2019-05-11T18:14:29.102Z,58.11
2019-05-11T18:15:29.099Z,58.39
2019-05-11T18:16:29.090Z,58.29
2019-05-11T18:17:29.065Z,58.52
2019-05-11T18:18:29.344Z,58.01
2019-05-11T18:19:29.042Z,58.52
2019-05-11T18:20:29.035Z,58.62
2019-05-11T18:21:29.034Z,58.01
2019-05-11T18:22:29.011Z,59.84
2019-05-11T18:23:28.999Z,58.92
2019-05-11T18:24:28.989Z,57.93
2019-05-11T18:25:28.993Z,59.53
2019-05-11T18:26:28.985Z,58.54
2019-05-11T18:27:28.956Z,58.54
2019-05-11T18:28:29.317Z,58.65
2019-05-11T18:29:29.039Z,59.77
2019-05-11T18:30:29.436Z,59.26
2019-05-11T18:31:28.924Z,59.97
2019-05-11T18:32:28.901Z,59.97
2019-05-11T18:33:28.894Z,59.86
2019-05-11T18:34:28.880Z,59.97
2019-05-11T18:35:28.875Z,59.36
2019-05-11T18:36:29.043Z,59.99
2019-05-11T18:37:28.859Z,59.97
2019-05-11T18:38:28.832Z,59.89
2019-05-11T18:39:28.820Z,59.48
2019-05-11T18:40:28.817Z,59.89
2019-05-11T18:41:28.800Z,59.48
2019-05-11T18:42:28.826Z,60.50
2019-05-11T18:43:28.781Z,59.89
2019-05-11T18:44:28.765Z,60.20
2019-05-11T18:45:28.925Z,59.69
2019-05-11T18:46:28.743Z,60.60
2019-05-11T18:47:29.947Z,60.60
2019-05-11T18:48:29.193Z,59.99
2019-05-11T18:49:28.711Z,59.59
2019-05-11T18:50:30.929Z,60.83
2019-05-11T18:51:28.688Z,60.20
2019-05-11T18:52:28.688Z,61.01
2019-05-11T18:53:29.099Z,60.43
2019-05-11T18:54:28.653Z,60.53
2019-05-11T18:55:28.642Z,61.34
2019-05-11T18:56:28.704Z,60.94
2019-05-11T18:57:28.630Z,61.14
2019-05-11T18:58:28.608Z,61.24
2019-05-11T18:59:28.600Z,61.14
2019-05-11T19:00:28.589Z,61.55
2019-05-11T19:01:28.687Z,61.75
2019-05-11T19:02:28.575Z,61.75
2019-05-11T19:03:28.554Z,61.75
2019-05-11T19:04:28.830Z,60.83
2019-05-11T19:05:29.222Z,60.74
2019-05-11T19:06:28.634Z,61.04
2019-05-11T19:07:28.519Z,61.75
2019-05-11T19:08:28.496Z,60.46
2019-05-11T19:09:28.522Z,60.15
2019-05-11T19:10:28.476Z,60.15
2019-05-11T19:11:29.049Z,59.95
2019-05-11T19:12:28.463Z,59.84
2019-05-11T19:13:28.485Z,59.84
2019-05-11T19:14:28.435Z,60.15
2019-05-11T19:15:28.443Z,60.36
2019-05-11T19:16:28.893Z,59.98
2019-05-11T19:17:29.105Z,60.46
2019-05-11T19:18:28.432Z,59.88
2019-05-11T19:19:28.378Z,58.45
2019-05-11T19:20:28.550Z,57.95
2019-05-11T19:21:28.354Z,57.23
2019-05-11T19:22:28.889Z,57.64
2019-05-11T19:23:28.864Z,55.71
2019-05-11T19:24:28.320Z,56.21
2019-05-11T19:25:28.314Z,56.73
2019-05-11T19:26:28.295Z,56.93
2019-05-11T19:27:28.809Z,56.55
2019-05-11T19:28:28.334Z,56.34
2019-05-11T19:29:28.380Z,56.55
2019-05-11T19:30:28.254Z,56.34
2019-05-11T19:31:28.256Z,56.45
2019-05-11T19:32:28.390Z,56.14
2019-05-11T19:33:28.217Z,56.45
2019-05-11T19:34:28.257Z,56.16
2019-05-11T19:35:28.791Z,56.27
2019-05-11T19:36:28.190Z,56.65
2019-05-11T19:37:28.175Z,57.39
2019-05-11T19:38:28.234Z,58.00
2019-05-11T19:39:28.159Z,58.00
2019-05-11T19:40:28.142Z,58.30
2019-05-11T19:41:28.129Z,58.61
2019-05-11T19:42:28.568Z,58.53
2019-05-11T19:43:28.114Z,58.03
2019-05-11T19:44:28.113Z,58.23
2019-05-11T19:45:29.340Z,58.03
2019-05-11T19:46:28.208Z,56.60
2019-05-11T19:47:28.292Z,57.42
2019-05-11T19:48:28.240Z,56.60
2019-05-11T19:49:28.066Z,58.53
2019-05-11T19:50:28.032Z,57.92
2019-05-11T19:51:29.061Z,56.52
2019-05-11T19:52:28.261Z,56.63
2019-05-11T19:53:28.201Z,57.75
2019-05-11T19:54:28.911Z,58.05
2019-05-11T19:55:28.672Z,56.63
2019-05-11T19:56:28.982Z,56.63
2019-05-11T19:57:28.346Z,56.83
2019-05-11T19:58:28.887Z,57.85
2019-05-11T19:59:28.070Z,57.75
2019-05-11T20:00:27.917Z,57.78
2019-05-11T20:01:28.023Z,57.65
2019-05-11T20:02:28.441Z,57.57
2019-05-11T20:03:28.518Z,57.87
2019-05-11T20:04:28.417Z,56.55
2019-05-11T20:05:28.833Z,56.55
2019-05-11T20:06:28.187Z,56.45
2019-05-11T20:07:27.839Z,56.76
2019-05-11T20:08:29.077Z,56.65
2019-05-11T20:09:28.339Z,56.65
2019-05-11T20:10:27.946Z,57.80
2019-05-11T20:11:28.061Z,57.78
2019-05-11T20:12:28.374Z,57.09
2019-05-11T20:13:28.362Z,58.11
2019-05-11T20:14:28.361Z,57.70
2019-05-11T20:15:27.751Z,57.70
2019-05-11T20:16:27.738Z,57.50
2019-05-11T20:17:28.848Z,57.29
2019-05-11T20:18:28.857Z,57.60
2019-05-11T20:19:28.250Z,56.58
2019-05-11T20:20:28.466Z,57.39
2019-05-11T20:21:29.045Z,58.03
2019-05-11T20:22:28.179Z,58.34
2019-05-11T20:23:27.666Z,58.14
2019-05-11T20:24:27.938Z,57.73
2019-05-11T20:25:28.769Z,58.03
2019-05-11T20:26:28.588Z,58.34
2019-05-11T20:27:28.214Z,58.44
2019-05-11T20:28:28.460Z,58.44
2019-05-11T20:29:27.812Z,57.96
2019-05-11T20:30:27.578Z,58.03
2019-05-11T20:31:27.812Z,57.55
2019-05-11T20:32:28.431Z,57.96
2019-05-11T20:33:27.934Z,58.37
2019-05-11T20:34:28.855Z,56.94
2019-05-11T20:35:28.064Z,57.73
2019-05-11T20:36:27.513Z,56.84
2019-05-11T20:37:28.759Z,56.84
2019-05-11T20:38:27.997Z,56.73
2019-05-11T20:39:28.661Z,56.73
2019-05-11T20:40:28.522Z,57.55
2019-05-11T20:41:28.005Z,56.73
2019-05-11T20:42:27.445Z,57.24
2019-05-11T20:43:27.874Z,56.73
2019-05-11T20:44:28.671Z,57.55
2019-05-11T20:45:28.516Z,56.86
2019-05-11T20:46:27.812Z,56.96
2019-05-11T20:47:28.737Z,56.76
2019-05-11T20:48:27.853Z,56.86
2019-05-11T20:49:28.198Z,56.96
2019-05-11T20:50:27.357Z,57.37
2019-05-11T20:51:34.137Z,56.89
2019-05-11T20:52:28.482Z,56.76
2019-05-11T20:53:28.640Z,58.39
2019-05-11T20:54:28.174Z,58.11
2019-05-11T20:55:28.363Z,57.68
2019-05-11T20:56:28.405Z,57.91
2019-05-11T20:57:28.461Z,57.91
2019-05-11T20:58:28.914Z,58.32
2019-05-11T20:59:28.941Z,58.01
2019-05-11T21:00:27.958Z,58.01
2019-05-11T21:01:28.559Z,58.32
2019-05-11T21:02:28.839Z,57.81
2019-05-11T21:03:27.807Z,58.62
2019-05-11T21:04:28.167Z,58.32
